sensor_id;sensor_type;location;lat;lon;timestamp;temperature;humidity
60027;DHT22;45891;53.006;6.512;2022-11-27T00:00:24;6.30;99.90
60027;DHT22;45891;53.006;6.512;2022-11-27T00:02:50;6.30;99.90
60027;DHT22;45891;53.006;6.512;2022-11-27T00:05:16;6.30;99.90
60027;DHT22;45891;53.006;6.512;2022-11-27T00:07:42;6.30;99.90
60027;DHT22;45891;53.006;6.512;2022-11-27T00:10:08;6.20;99.90
60027;DHT22;45891;53.006;6.512;2022-11-27T00:12:34;6.20;99.90
60027;DHT22;45891;53.006;6.512;2022-11-27T00:15:00;6.20;99.90
60027;DHT22;45891;53.006;6.512;2022-11-27T00:17:26;6.10;99.90
60027;DHT22;45891;53.006;6.512;2022-11-27T00:19:52;6.10;99.90
60027;DHT22;45891;53.006;6.512;2022-11-27T00:22:18;6.10;99.90
60027;DHT22;45891;53.006;6.512;2022-11-27T00:24:43;6.10;99.90
60027;DHT22;45891;53.006;6.512;2022-11-27T00:27:10;6.10;99.90
60027;DHT22;45891;53.006;6.512;2022-11-27T00:29:36;6.00;99.90
60027;DHT22;45891;53.006;6.512;2022-11-27T00:32:02;6.00;99.90
60027;DHT22;45891;53.006;6.512;2022-11-27T00:34:28;6.00;99.90
60027;DHT22;45891;53.006;6.512;2022-11-27T00:36:54;6.00;99.90
60027;DHT22;45891;53.006;6.512;2022-11-27T00:39:20;6.00;99.90
60027;DHT22;45891;53.006;6.512;2022-11-27T00:41:46;6.00;99.90
60027;DHT22;45891;53.006;6.512;2022-11-27T00:44:12;6.00;99.90
60027;DHT22;45891;53.006;6.512;2022-11-27T00:46:38;6.00;99.90
60027;DHT22;45891;53.006;6.512;2022-11-27T00:49:07;6.00;99.90
60027;DHT22;45891;53.006;6.512;2022-11-27T00:51:33;6.00;99.90
60027;DHT22;45891;53.006;6.512;2022-11-27T00:53:59;5.90;99.90
60027;DHT22;45891;53.006;6.512;2022-11-27T00:56:26;5.90;99.90
60027;DHT22;45891;53.006;6.512;2022-11-27T00:58:52;5.90;99.90
60027;DHT22;45891;53.006;6.512;2022-11-27T01:01:21;5.90;99.90
60027;DHT22;45891;53.006;6.512;2022-11-27T01:03:47;5.90;99.90
60027;DHT22;45891;53.006;6.512;2022-11-27T01:06:14;5.90;99.90
60027;DHT22;45891;53.006;6.512;2022-11-27T01:08:40;5.80;99.90
60027;DHT22;45891;53.006;6.512;2022-11-27T01:11:06;5.80;99.90
60027;DHT22;45891;53.006;6.512;2022-11-27T01:13:35;5.80;99.90
60027;DHT22;45891;53.006;6.512;2022-11-27T01:18:28;5.70;99.90
60027;DHT22;45891;53.006;6.512;2022-11-27T01:20:54;5.70;99.90
60027;DHT22;45891;53.006;6.512;2022-11-27T01:23:20;5.70;99.90
60027;DHT22;45891;53.006;6.512;2022-11-27T01:25:47;5.70;99.90
60027;DHT22;45891;53.006;6.512;2022-11-27T01:28:13;5.70;99.90
60027;DHT22;45891;53.006;6.512;2022-11-27T01:30:39;5.70;99.90
60027;DHT22;45891;53.006;6.512;2022-11-27T01:33:05;5.70;99.90
60027;DHT22;45891;53.006;6.512;2022-11-27T01:35:31;5.60;99.90
60027;DHT22;45891;53.006;6.512;2022-11-27T01:37:57;5.60;99.90
60027;DHT22;45891;53.006;6.512;2022-11-27T01:40:23;5.60;99.90
60027;DHT22;45891;53.006;6.512;2022-11-27T01:42:49;5.60;99.90
60027;DHT22;45891;53.006;6.512;2022-11-27T01:45:16;5.50;99.90
60027;DHT22;45891;53.006;6.512;2022-11-27T01:47:44;5.50;99.90
60027;DHT22;45891;53.006;6.512;2022-11-27T01:50:16;5.50;99.90
60027;DHT22;45891;53.006;6.512;2022-11-27T01:52:46;5.50;99.90
60027;DHT22;45891;53.006;6.512;2022-11-27T01:55:15;5.50;99.90
60027;DHT22;45891;53.006;6.512;2022-11-27T01:57:46;5.50;99.90
60027;DHT22;45891;53.006;6.512;2022-11-27T02:00:13;5.50;99.90
60027;DHT22;45891;53.006;6.512;2022-11-27T02:02:40;5.50;99.90
60027;DHT22;45891;53.006;6.512;2022-11-27T02:05:06;5.50;99.90
60027;DHT22;45891;53.006;6.512;2022-11-27T02:07:33;5.50;99.90
60027;DHT22;45891;53.006;6.512;2022-11-27T02:09:59;5.50;99.90
60027;DHT22;45891;53.006;6.512;2022-11-27T02:12:44;5.50;99.90
60027;DHT22;45891;53.006;6.512;2022-11-27T02:23:11;5.50;99.90
60027;DHT22;45891;53.006;6.512;2022-11-27T02:31:03;5.50;99.90
60027;DHT22;45891;53.006;6.512;2022-11-27T02:33:31;5.50;99.90
60027;DHT22;45891;53.006;6.512;2022-11-27T02:35:58;5.50;99.90
60027;DHT22;45891;53.006;6.512;2022-11-27T02:40:55;5.50;99.90
60027;DHT22;45891;53.006;6.512;2022-11-27T02:43:25;5.50;99.90
60027;DHT22;45891;53.006;6.512;2022-11-27T02:45:52;5.50;99.90
60027;DHT22;45891;53.006;6.512;2022-11-27T02:48:20;5.50;99.90
60027;DHT22;45891;53.006;6.512;2022-11-27T02:50:47;5.60;99.90
60027;DHT22;45891;53.006;6.512;2022-11-27T02:53:16;5.60;99.90
60027;DHT22;45891;53.006;6.512;2022-11-27T02:55:43;5.60;99.90
60027;DHT22;45891;53.006;6.512;2022-11-27T02:58:12;5.60;99.90
60027;DHT22;45891;53.006;6.512;2022-11-27T03:00:39;5.60;99.90
60027;DHT22;45891;53.006;6.512;2022-11-27T03:03:07;5.60;99.90
60027;DHT22;45891;53.006;6.512;2022-11-27T03:05:35;5.70;99.90
60027;DHT22;45891;53.006;6.512;2022-11-27T03:08:09;5.70;99.90
60027;DHT22;45891;53.006;6.512;2022-11-27T03:13:13;5.70;99.90
60027;DHT22;45891;53.006;6.512;2022-11-27T03:21:34;5.70;99.90
60027;DHT22;45891;53.006;6.512;2022-11-27T03:23:58;5.70;99.90
60027;DHT22;45891;53.006;6.512;2022-11-27T03:26:25;5.70;99.90
60027;DHT22;45891;53.006;6.512;2022-11-27T03:28:51;5.70;99.90
60027;DHT22;45891;53.006;6.512;2022-11-27T03:31:18;5.70;99.90
60027;DHT22;45891;53.006;6.512;2022-11-27T03:33:45;5.70;99.90
60027;DHT22;45891;53.006;6.512;2022-11-27T03:36:14;5.70;99.90
60027;DHT22;45891;53.006;6.512;2022-11-27T03:38:41;5.70;99.90
60027;DHT22;45891;53.006;6.512;2022-11-27T03:43:41;5.70;99.90
60027;DHT22;45891;53.006;6.512;2022-11-27T03:46:10;5.80;99.90
60027;DHT22;45891;53.006;6.512;2022-11-27T03:48:46;5.80;99.90
60027;DHT22;45891;53.006;6.512;2022-11-27T03:51:20;5.70;99.90
60027;DHT22;45891;53.006;6.512;2022-11-27T03:53:51;5.80;99.90
60027;DHT22;45891;53.006;6.512;2022-11-27T03:58:55;5.80;99.90
60027;DHT22;45891;53.006;6.512;2022-11-27T04:01:24;5.80;99.90
60027;DHT22;45891;53.006;6.512;2022-11-27T04:03:51;5.80;99.90
60027;DHT22;45891;53.006;6.512;2022-11-27T04:06:18;5.70;99.90
60027;DHT22;45891;53.006;6.512;2022-11-27T04:08:44;5.70;99.90
60027;DHT22;45891;53.006;6.512;2022-11-27T04:11:12;5.70;99.90
60027;DHT22;45891;53.006;6.512;2022-11-27T04:13:38;5.80;99.90
60027;DHT22;45891;53.006;6.512;2022-11-27T04:16:04;5.70;99.90
60027;DHT22;45891;53.006;6.512;2022-11-27T04:18:30;5.80;99.90
60027;DHT22;45891;53.006;6.512;2022-11-27T04:20:56;5.80;99.90
60027;DHT22;45891;53.006;6.512;2022-11-27T04:23:22;5.80;99.90
60027;DHT22;45891;53.006;6.512;2022-11-27T04:25:48;5.80;99.90
60027;DHT22;45891;53.006;6.512;2022-11-27T04:28:14;5.80;99.90
60027;DHT22;45891;53.006;6.512;2022-11-27T04:30:42;5.80;99.90
60027;DHT22;45891;53.006;6.512;2022-11-27T04:33:09;5.80;99.90
60027;DHT22;45891;53.006;6.512;2022-11-27T04:35:35;5.80;99.90
60027;DHT22;45891;53.006;6.512;2022-11-27T04:38:01;5.80;99.90
60027;DHT22;45891;53.006;6.512;2022-11-27T04:40:27;5.80;99.90
60027;DHT22;45891;53.006;6.512;2022-11-27T04:42:53;5.80;99.90
60027;DHT22;45891;53.006;6.512;2022-11-27T04:45:19;5.80;99.90
60027;DHT22;45891;53.006;6.512;2022-11-27T04:47:45;5.80;99.90
60027;DHT22;45891;53.006;6.512;2022-11-27T04:50:11;5.80;99.90
60027;DHT22;45891;53.006;6.512;2022-11-27T04:52:37;5.80;99.90
60027;DHT22;45891;53.006;6.512;2022-11-27T04:55:03;5.80;99.90
60027;DHT22;45891;53.006;6.512;2022-11-27T04:57:29;5.80;99.90
60027;DHT22;45891;53.006;6.512;2022-11-27T04:59:55;5.80;99.90
60027;DHT22;45891;53.006;6.512;2022-11-27T05:02:21;5.80;99.90
60027;DHT22;45891;53.006;6.512;2022-11-27T05:04:47;5.80;99.90
60027;DHT22;45891;53.006;6.512;2022-11-27T05:07:13;5.80;99.90
60027;DHT22;45891;53.006;6.512;2022-11-27T05:09:39;5.80;99.90
60027;DHT22;45891;53.006;6.512;2022-11-27T05:12:05;5.80;99.90
60027;DHT22;45891;53.006;6.512;2022-11-27T05:14:31;5.80;99.90
60027;DHT22;45891;53.006;6.512;2022-11-27T05:16:57;5.80;99.90
60027;DHT22;45891;53.006;6.512;2022-11-27T05:19:24;5.80;99.90
60027;DHT22;45891;53.006;6.512;2022-11-27T05:21:50;5.70;99.90
60027;DHT22;45891;53.006;6.512;2022-11-27T05:24:18;5.70;99.90
60027;DHT22;45891;53.006;6.512;2022-11-27T05:26:44;5.80;99.90
60027;DHT22;45891;53.006;6.512;2022-11-27T05:29:10;5.80;99.90
60027;DHT22;45891;53.006;6.512;2022-11-27T05:31:37;5.80;99.90
60027;DHT22;45891;53.006;6.512;2022-11-27T05:34:03;5.70;99.90
60027;DHT22;45891;53.006;6.512;2022-11-27T05:36:29;5.70;99.90
60027;DHT22;45891;53.006;6.512;2022-11-27T05:38:55;5.70;99.90
60027;DHT22;45891;53.006;6.512;2022-11-27T05:41:21;5.70;99.90
60027;DHT22;45891;53.006;6.512;2022-11-27T05:43:47;5.70;99.90
60027;DHT22;45891;53.006;6.512;2022-11-27T05:46:14;5.70;99.90
60027;DHT22;45891;53.006;6.512;2022-11-27T05:48:41;5.70;99.90
60027;DHT22;45891;53.006;6.512;2022-11-27T05:51:07;5.70;99.90
60027;DHT22;45891;53.006;6.512;2022-11-27T05:53:33;5.70;99.90
60027;DHT22;45891;53.006;6.512;2022-11-27T05:56:00;5.70;99.90
60027;DHT22;45891;53.006;6.512;2022-11-27T05:58:26;5.70;99.90
60027;DHT22;45891;53.006;6.512;2022-11-27T06:00:52;5.70;99.90
60027;DHT22;45891;53.006;6.512;2022-11-27T06:03:18;5.70;99.90
60027;DHT22;45891;53.006;6.512;2022-11-27T06:05:44;5.70;99.90
60027;DHT22;45891;53.006;6.512;2022-11-27T06:08:10;5.70;99.90
60027;DHT22;45891;53.006;6.512;2022-11-27T06:10:37;5.70;99.90
60027;DHT22;45891;53.006;6.512;2022-11-27T06:13:03;5.70;99.90
60027;DHT22;45891;53.006;6.512;2022-11-27T06:15:29;5.70;99.90
60027;DHT22;45891;53.006;6.512;2022-11-27T06:17:55;5.70;99.90
60027;DHT22;45891;53.006;6.512;2022-11-27T06:20:21;5.70;99.90
60027;DHT22;45891;53.006;6.512;2022-11-27T06:22:47;5.70;99.90
60027;DHT22;45891;53.006;6.512;2022-11-27T06:25:13;5.70;99.90
60027;DHT22;45891;53.006;6.512;2022-11-27T06:27:39;5.70;99.90
60027;DHT22;45891;53.006;6.512;2022-11-27T06:30:05;5.70;99.90
60027;DHT22;45891;53.006;6.512;2022-11-27T06:32:31;5.70;99.90
60027;DHT22;45891;53.006;6.512;2022-11-27T06:34:57;5.70;99.90
60027;DHT22;45891;53.006;6.512;2022-11-27T06:37:23;5.70;99.90
60027;DHT22;45891;53.006;6.512;2022-11-27T06:39:49;5.70;99.90
60027;DHT22;45891;53.006;6.512;2022-11-27T06:42:15;5.70;99.90
60027;DHT22;45891;53.006;6.512;2022-11-27T06:44:41;5.70;99.90
60027;DHT22;45891;53.006;6.512;2022-11-27T06:47:07;5.70;99.90
60027;DHT22;45891;53.006;6.512;2022-11-27T06:49:33;5.70;99.90
60027;DHT22;45891;53.006;6.512;2022-11-27T06:51:59;5.70;99.90
60027;DHT22;45891;53.006;6.512;2022-11-27T06:54:25;5.70;99.90
60027;DHT22;45891;53.006;6.512;2022-11-27T06:56:51;5.70;99.90
60027;DHT22;45891;53.006;6.512;2022-11-27T06:59:17;5.70;99.90
60027;DHT22;45891;53.006;6.512;2022-11-27T07:01:43;5.70;99.90
60027;DHT22;45891;53.006;6.512;2022-11-27T07:04:10;5.70;99.90
60027;DHT22;45891;53.006;6.512;2022-11-27T07:06:36;5.70;99.90
60027;DHT22;45891;53.006;6.512;2022-11-27T07:09:03;5.70;99.90
60027;DHT22;45891;53.006;6.512;2022-11-27T07:11:29;5.70;99.90
60027;DHT22;45891;53.006;6.512;2022-11-27T07:13:57;5.70;99.90
60027;DHT22;45891;53.006;6.512;2022-11-27T07:16:23;5.80;99.90
60027;DHT22;45891;53.006;6.512;2022-11-27T07:18:51;5.70;99.90
60027;DHT22;45891;53.006;6.512;2022-11-27T07:21:18;5.70;99.90
60027;DHT22;45891;53.006;6.512;2022-11-27T07:23:44;5.80;99.90
60027;DHT22;45891;53.006;6.512;2022-11-27T07:26:11;5.80;99.90
60027;DHT22;45891;53.006;6.512;2022-11-27T07:28:37;5.80;99.90
60027;DHT22;45891;53.006;6.512;2022-11-27T07:31:03;5.80;99.90
60027;DHT22;45891;53.006;6.512;2022-11-27T07:33:29;5.80;99.90
60027;DHT22;45891;53.006;6.512;2022-11-27T07:35:59;5.80;99.90
60027;DHT22;45891;53.006;6.512;2022-11-27T07:38:25;5.80;99.90
60027;DHT22;45891;53.006;6.512;2022-11-27T07:40:53;5.80;99.90
60027;DHT22;45891;53.006;6.512;2022-11-27T07:43:18;5.80;99.90
60027;DHT22;45891;53.006;6.512;2022-11-27T07:45:50;5.80;99.90
60027;DHT22;45891;53.006;6.512;2022-11-27T07:48:19;5.80;99.90
60027;DHT22;45891;53.006;6.512;2022-11-27T07:50:45;5.80;99.90
60027;DHT22;45891;53.006;6.512;2022-11-27T07:53:11;5.80;99.90
60027;DHT22;45891;53.006;6.512;2022-11-27T07:55:39;5.80;99.90
60027;DHT22;45891;53.006;6.512;2022-11-27T07:58:06;5.80;99.90
60027;DHT22;45891;53.006;6.512;2022-11-27T08:00:33;5.80;99.90
60027;DHT22;45891;53.006;6.512;2022-11-27T08:02:59;5.90;99.90
60027;DHT22;45891;53.006;6.512;2022-11-27T08:05:25;5.90;99.90
60027;DHT22;45891;53.006;6.512;2022-11-27T08:07:51;5.90;99.90
60027;DHT22;45891;53.006;6.512;2022-11-27T08:10:17;5.90;99.90
60027;DHT22;45891;53.006;6.512;2022-11-27T08:12:43;5.90;99.90
60027;DHT22;45891;53.006;6.512;2022-11-27T08:15:09;5.90;99.90
60027;DHT22;45891;53.006;6.512;2022-11-27T08:17:35;5.90;99.90
60027;DHT22;45891;53.006;6.512;2022-11-27T08:20:02;5.90;99.90
60027;DHT22;45891;53.006;6.512;2022-11-27T08:22:28;5.90;99.90
60027;DHT22;45891;53.006;6.512;2022-11-27T08:24:54;5.90;99.90
60027;DHT22;45891;53.006;6.512;2022-11-27T08:27:20;5.90;99.90
60027;DHT22;45891;53.006;6.512;2022-11-27T08:29:46;5.90;99.90
60027;DHT22;45891;53.006;6.512;2022-11-27T08:32:12;5.90;99.90
60027;DHT22;45891;53.006;6.512;2022-11-27T08:34:38;5.90;99.90
60027;DHT22;45891;53.006;6.512;2022-11-27T08:37:04;5.90;99.90
60027;DHT22;45891;53.006;6.512;2022-11-27T08:39:30;5.90;99.90
60027;DHT22;45891;53.006;6.512;2022-11-27T08:41:56;5.90;99.90
60027;DHT22;45891;53.006;6.512;2022-11-27T08:44:22;6.00;99.90
60027;DHT22;45891;53.006;6.512;2022-11-27T08:46:48;6.00;99.90
60027;DHT22;45891;53.006;6.512;2022-11-27T08:49:14;6.00;99.90
60027;DHT22;45891;53.006;6.512;2022-11-27T08:51:40;6.00;99.90
60027;DHT22;45891;53.006;6.512;2022-11-27T08:54:07;6.00;99.90
60027;DHT22;45891;53.006;6.512;2022-11-27T08:56:33;6.00;99.90
60027;DHT22;45891;53.006;6.512;2022-11-27T08:59:00;6.00;99.90
60027;DHT22;45891;53.006;6.512;2022-11-27T09:01:28;6.00;99.90
60027;DHT22;45891;53.006;6.512;2022-11-27T09:03:54;6.00;99.90
60027;DHT22;45891;53.006;6.512;2022-11-27T09:06:21;6.00;99.90
60027;DHT22;45891;53.006;6.512;2022-11-27T09:08:47;6.00;99.90
60027;DHT22;45891;53.006;6.512;2022-11-27T09:11:14;6.00;99.90
60027;DHT22;45891;53.006;6.512;2022-11-27T09:13:40;6.00;99.90
60027;DHT22;45891;53.006;6.512;2022-11-27T09:16:11;6.10;99.90
60027;DHT22;45891;53.006;6.512;2022-11-27T09:18:37;6.10;99.90
60027;DHT22;45891;53.006;6.512;2022-11-27T09:21:04;6.10;99.90
60027;DHT22;45891;53.006;6.512;2022-11-27T09:23:30;6.10;99.90
60027;DHT22;45891;53.006;6.512;2022-11-27T09:26:00;6.10;99.90
60027;DHT22;45891;53.006;6.512;2022-11-27T09:28:28;6.10;99.90
60027;DHT22;45891;53.006;6.512;2022-11-27T09:30:55;6.20;99.90
60027;DHT22;45891;53.006;6.512;2022-11-27T09:33:22;6.20;99.90
60027;DHT22;45891;53.006;6.512;2022-11-27T09:35:48;6.10;99.90
60027;DHT22;45891;53.006;6.512;2022-11-27T09:38:14;6.20;99.90
60027;DHT22;45891;53.006;6.512;2022-11-27T09:40:44;6.20;99.90
60027;DHT22;45891;53.006;6.512;2022-11-27T09:43:12;6.20;99.90
60027;DHT22;45891;53.006;6.512;2022-11-27T09:45:41;6.20;99.90
60027;DHT22;45891;53.006;6.512;2022-11-27T09:48:10;6.10;99.90
60027;DHT22;45891;53.006;6.512;2022-11-27T09:50:40;6.10;99.90
60027;DHT22;45891;53.006;6.512;2022-11-27T09:53:27;6.20;99.90
60027;DHT22;45891;53.006;6.512;2022-11-27T09:55:56;6.10;99.90
60027;DHT22;45891;53.006;6.512;2022-11-27T10:00:53;6.10;99.90
60027;DHT22;45891;53.006;6.512;2022-11-27T10:03:22;6.10;99.90
60027;DHT22;45891;53.006;6.512;2022-11-27T10:05:59;6.10;99.90
60027;DHT22;45891;53.006;6.512;2022-11-27T10:08:30;6.10;99.90
60027;DHT22;45891;53.006;6.512;2022-11-27T10:17:10;6.10;99.90
60027;DHT22;45891;53.006;6.512;2022-11-27T10:19:34;6.10;99.90
60027;DHT22;45891;53.006;6.512;2022-11-27T10:27:22;6.20;99.90
60027;DHT22;45891;53.006;6.512;2022-11-27T10:29:51;6.20;99.90
60027;DHT22;45891;53.006;6.512;2022-11-27T10:32:31;6.20;99.90
60027;DHT22;45891;53.006;6.512;2022-11-27T10:35:00;6.10;99.90
60027;DHT22;45891;53.006;6.512;2022-11-27T10:37:29;6.10;99.90
60027;DHT22;45891;53.006;6.512;2022-11-27T10:39:58;6.20;99.90
60027;DHT22;45891;53.006;6.512;2022-11-27T10:45:05;6.10;99.90
60027;DHT22;45891;53.006;6.512;2022-11-27T10:47:32;6.20;99.90
60027;DHT22;45891;53.006;6.512;2022-11-27T10:49:58;6.20;99.90
60027;DHT22;45891;53.006;6.512;2022-11-27T10:52:25;6.20;99.90
60027;DHT22;45891;53.006;6.512;2022-11-27T10:54:55;6.20;99.90
60027;DHT22;45891;53.006;6.512;2022-11-27T11:02:38;6.30;99.90
60027;DHT22;45891;53.006;6.512;2022-11-27T11:05:21;6.30;99.90
60027;DHT22;45891;53.006;6.512;2022-11-27T11:07:58;6.30;99.90
60027;DHT22;45891;53.006;6.512;2022-11-27T11:10:26;6.30;99.90
60027;DHT22;45891;53.006;6.512;2022-11-27T11:15:54;6.40;99.90
60027;DHT22;45891;53.006;6.512;2022-11-27T11:18:21;6.40;99.90
60027;DHT22;45891;53.006;6.512;2022-11-27T11:20:50;6.40;99.90
60027;DHT22;45891;53.006;6.512;2022-11-27T11:26:07;6.40;99.90
60027;DHT22;45891;53.006;6.512;2022-11-27T11:28:42;6.40;99.90
60027;DHT22;45891;53.006;6.512;2022-11-27T11:31:09;6.40;99.90
60027;DHT22;45891;53.006;6.512;2022-11-27T11:33:45;6.50;99.90
60027;DHT22;45891;53.006;6.512;2022-11-27T11:36:12;6.50;99.90
60027;DHT22;45891;53.006;6.512;2022-11-27T11:38:40;6.40;99.90
60027;DHT22;45891;53.006;6.512;2022-11-27T11:41:06;6.50;99.90
60027;DHT22;45891;53.006;6.512;2022-11-27T11:43:35;6.50;99.90
60027;DHT22;45891;53.006;6.512;2022-11-27T11:46:03;6.50;99.90
60027;DHT22;45891;53.006;6.512;2022-11-27T11:48:31;6.50;99.90
60027;DHT22;45891;53.006;6.512;2022-11-27T11:51:01;6.50;99.90
60027;DHT22;45891;53.006;6.512;2022-11-27T11:53:41;6.50;99.90
60027;DHT22;45891;53.006;6.512;2022-11-27T12:28:02;6.80;99.90
60027;DHT22;45891;53.006;6.512;2022-11-27T12:35:41;6.80;99.90
60027;DHT22;45891;53.006;6.512;2022-11-27T12:45:48;6.90;99.90
60027;DHT22;45891;53.006;6.512;2022-11-27T12:50:52;6.90;99.90
60027;DHT22;45891;53.006;6.512;2022-11-27T12:56:12;6.90;99.90
60027;DHT22;45891;53.006;6.512;2022-11-27T12:58:36;6.80;99.90
60027;DHT22;45891;53.006;6.512;2022-11-27T13:01:09;6.80;99.90
60027;DHT22;45891;53.006;6.512;2022-11-27T13:06:35;6.80;99.90
60027;DHT22;45891;53.006;6.512;2022-11-27T13:09:15;6.80;99.90
60027;DHT22;45891;53.006;6.512;2022-11-27T13:11:43;6.80;99.90
60027;DHT22;45891;53.006;6.512;2022-11-27T13:14:11;6.90;99.90
60027;DHT22;45891;53.006;6.512;2022-11-27T13:16:39;6.90;99.90
60027;DHT22;45891;53.006;6.512;2022-11-27T13:21:38;6.80;99.90
60027;DHT22;45891;53.006;6.512;2022-11-27T13:24:08;6.90;99.90
60027;DHT22;45891;53.006;6.512;2022-11-27T13:26:44;6.90;99.90
60027;DHT22;45891;53.006;6.512;2022-11-27T13:31:55;6.90;99.90
60027;DHT22;45891;53.006;6.512;2022-11-27T13:34:23;6.80;99.90
60027;DHT22;45891;53.006;6.512;2022-11-27T13:41:57;6.80;99.90
60027;DHT22;45891;53.006;6.512;2022-11-27T13:44:25;6.80;99.90
60027;DHT22;45891;53.006;6.512;2022-11-27T13:49:25;6.80;99.90
60027;DHT22;45891;53.006;6.512;2022-11-27T13:52:02;6.80;99.90
60027;DHT22;45891;53.006;6.512;2022-11-27T13:54:28;6.80;99.90
60027;DHT22;45891;53.006;6.512;2022-11-27T13:57:08;6.80;99.90
60027;DHT22;45891;53.006;6.512;2022-11-27T13:59:34;6.80;99.90
60027;DHT22;45891;53.006;6.512;2022-11-27T14:02:04;6.80;99.90
60027;DHT22;45891;53.006;6.512;2022-11-27T14:04:34;6.80;99.90
60027;DHT22;45891;53.006;6.512;2022-11-27T14:07:05;6.80;99.90
60027;DHT22;45891;53.006;6.512;2022-11-27T14:09:34;6.80;99.90
60027;DHT22;45891;53.006;6.512;2022-11-27T14:12:00;6.80;99.90
60027;DHT22;45891;53.006;6.512;2022-11-27T14:14:28;6.80;99.90
60027;DHT22;45891;53.006;6.512;2022-11-27T14:16:58;6.80;99.90
60027;DHT22;45891;53.006;6.512;2022-11-27T14:21:53;6.80;99.90
60027;DHT22;45891;53.006;6.512;2022-11-27T14:24:39;6.80;99.90
60027;DHT22;45891;53.006;6.512;2022-11-27T14:27:32;6.70;99.90
60027;DHT22;45891;53.006;6.512;2022-11-27T14:29:54;6.70;99.90
60027;DHT22;45891;53.006;6.512;2022-11-27T14:32:20;6.70;99.90
60027;DHT22;45891;53.006;6.512;2022-11-27T14:34:46;6.70;99.90
60027;DHT22;45891;53.006;6.512;2022-11-27T14:37:19;6.70;99.90
60027;DHT22;45891;53.006;6.512;2022-11-27T14:39:45;6.60;99.90
60027;DHT22;45891;53.006;6.512;2022-11-27T14:42:25;6.60;99.90
60027;DHT22;45891;53.006;6.512;2022-11-27T14:45:04;6.60;99.90
60027;DHT22;45891;53.006;6.512;2022-11-27T14:47:32;6.60;99.90
60027;DHT22;45891;53.006;6.512;2022-11-27T14:49:58;6.50;99.90
60027;DHT22;45891;53.006;6.512;2022-11-27T14:52:24;6.50;99.90
60027;DHT22;45891;53.006;6.512;2022-11-27T14:54:51;6.50;99.90
60027;DHT22;45891;53.006;6.512;2022-11-27T14:57:23;6.50;99.90
60027;DHT22;45891;53.006;6.512;2022-11-27T15:02:29;6.50;99.90
60027;DHT22;45891;53.006;6.512;2022-11-27T15:05:03;6.50;99.90
60027;DHT22;45891;53.006;6.512;2022-11-27T15:07:30;6.50;99.90
60027;DHT22;45891;53.006;6.512;2022-11-27T15:10:06;6.40;99.90
60027;DHT22;45891;53.006;6.512;2022-11-27T15:12:33;6.50;99.90
60027;DHT22;45891;53.006;6.512;2022-11-27T15:17:32;6.40;99.90
60027;DHT22;45891;53.006;6.512;2022-11-27T15:19:59;6.40;99.90
60027;DHT22;45891;53.006;6.512;2022-11-27T15:22:25;6.40;99.90
60027;DHT22;45891;53.006;6.512;2022-11-27T15:24:58;6.40;99.90
60027;DHT22;45891;53.006;6.512;2022-11-27T15:27:24;6.40;99.90
60027;DHT22;45891;53.006;6.512;2022-11-27T15:32:17;6.40;99.90
60027;DHT22;45891;53.006;6.512;2022-11-27T15:34:43;6.40;99.90
60027;DHT22;45891;53.006;6.512;2022-11-27T15:37:23;6.40;99.90
60027;DHT22;45891;53.006;6.512;2022-11-27T15:39:50;6.40;99.90
60027;DHT22;45891;53.006;6.512;2022-11-27T15:42:17;6.40;99.90
60027;DHT22;45891;53.006;6.512;2022-11-27T15:44:46;6.40;99.90
60027;DHT22;45891;53.006;6.512;2022-11-27T15:47:35;6.40;99.90
60027;DHT22;45891;53.006;6.512;2022-11-27T15:50:00;6.40;99.90
60027;DHT22;45891;53.006;6.512;2022-11-27T15:52:26;6.40;99.90
60027;DHT22;45891;53.006;6.512;2022-11-27T15:54:52;6.40;99.90
60027;DHT22;45891;53.006;6.512;2022-11-27T15:57:18;6.40;99.90
60027;DHT22;45891;53.006;6.512;2022-11-27T15:59:45;6.40;99.90
60027;DHT22;45891;53.006;6.512;2022-11-27T16:02:11;6.40;99.90
60027;DHT22;45891;53.006;6.512;2022-11-27T16:04:37;6.40;99.90
60027;DHT22;45891;53.006;6.512;2022-11-27T16:07:04;6.40;99.90
60027;DHT22;45891;53.006;6.512;2022-11-27T16:09:30;6.50;99.90
60027;DHT22;45891;53.006;6.512;2022-11-27T16:11:56;6.50;99.90
60027;DHT22;45891;53.006;6.512;2022-11-27T16:14:22;6.40;99.90
60027;DHT22;45891;53.006;6.512;2022-11-27T16:16:48;6.40;99.90
60027;DHT22;45891;53.006;6.512;2022-11-27T16:19:14;6.50;99.90
60027;DHT22;45891;53.006;6.512;2022-11-27T16:21:41;6.40;99.90
60027;DHT22;45891;53.006;6.512;2022-11-27T16:24:09;6.50;99.90
60027;DHT22;45891;53.006;6.512;2022-11-27T16:26:35;6.50;99.90
60027;DHT22;45891;53.006;6.512;2022-11-27T16:29:04;6.40;99.90
60027;DHT22;45891;53.006;6.512;2022-11-27T16:31:30;6.50;99.90
60027;DHT22;45891;53.006;6.512;2022-11-27T16:33:56;6.50;99.90
60027;DHT22;45891;53.006;6.512;2022-11-27T16:36:23;6.50;99.90
60027;DHT22;45891;53.006;6.512;2022-11-27T16:38:50;6.40;99.90
60027;DHT22;45891;53.006;6.512;2022-11-27T16:41:16;6.50;99.90
60027;DHT22;45891;53.006;6.512;2022-11-27T16:43:43;6.50;99.90
60027;DHT22;45891;53.006;6.512;2022-11-27T16:46:10;6.50;99.90
60027;DHT22;45891;53.006;6.512;2022-11-27T16:48:38;6.50;99.90
60027;DHT22;45891;53.006;6.512;2022-11-27T16:51:09;6.50;99.90
60027;DHT22;45891;53.006;6.512;2022-11-27T16:53:36;6.50;99.90
60027;DHT22;45891;53.006;6.512;2022-11-27T16:56:03;6.50;99.90
60027;DHT22;45891;53.006;6.512;2022-11-27T16:58:33;6.40;99.90
60027;DHT22;45891;53.006;6.512;2022-11-27T17:00:59;6.50;99.90
60027;DHT22;45891;53.006;6.512;2022-11-27T17:03:25;6.50;99.90
60027;DHT22;45891;53.006;6.512;2022-11-27T17:05:51;6.50;99.90
60027;DHT22;45891;53.006;6.512;2022-11-27T17:08:17;6.50;99.90
60027;DHT22;45891;53.006;6.512;2022-11-27T17:10:43;6.40;99.90
60027;DHT22;45891;53.006;6.512;2022-11-27T17:13:10;6.50;99.90
60027;DHT22;45891;53.006;6.512;2022-11-27T17:15:36;6.50;99.90
60027;DHT22;45891;53.006;6.512;2022-11-27T17:18:02;6.40;99.90
60027;DHT22;45891;53.006;6.512;2022-11-27T17:20:28;6.40;99.90
60027;DHT22;45891;53.006;6.512;2022-11-27T17:22:54;6.50;99.90
60027;DHT22;45891;53.006;6.512;2022-11-27T17:25:19;6.50;99.90
60027;DHT22;45891;53.006;6.512;2022-11-27T17:27:45;6.50;99.90
60027;DHT22;45891;53.006;6.512;2022-11-27T17:30:13;6.50;99.90
60027;DHT22;45891;53.006;6.512;2022-11-27T17:32:39;6.50;99.90
60027;DHT22;45891;53.006;6.512;2022-11-27T17:35:04;6.50;99.90
60027;DHT22;45891;53.006;6.512;2022-11-27T17:37:30;6.50;99.90
60027;DHT22;45891;53.006;6.512;2022-11-27T17:39:57;6.50;99.90
60027;DHT22;45891;53.006;6.512;2022-11-27T17:42:23;6.50;99.90
60027;DHT22;45891;53.006;6.512;2022-11-27T17:44:48;6.50;99.90
60027;DHT22;45891;53.006;6.512;2022-11-27T17:47:15;6.50;99.90
60027;DHT22;45891;53.006;6.512;2022-11-27T17:49:41;6.50;99.90
60027;DHT22;45891;53.006;6.512;2022-11-27T17:52:07;6.50;99.90
60027;DHT22;45891;53.006;6.512;2022-11-27T17:54:33;6.50;99.90
60027;DHT22;45891;53.006;6.512;2022-11-27T17:56:59;6.50;99.90
60027;DHT22;45891;53.006;6.512;2022-11-27T17:59:25;6.50;99.90
60027;DHT22;45891;53.006;6.512;2022-11-27T18:01:51;6.50;99.90